Terminal Aerodrome Forecast
Issued by NWS Mt. Holly, NJ

Home | Current Version | Previous Version | Text Only | Print | Product List | Glossary On
Versions: 1 2 3 4 5 6 7 8 9 10 11 12 13 14 15
000
FTUS41 KPHI 280500
TAFACY
TAF
KACY 280533Z 2806/2906 28006KT P6SM SCT250
     FM280700 33008KT P6SM SCT045
     FM281200 32012G20KT P6SM SKC
     FM282300 31008KT P6SM SKC
     FM290400 35006KT P6SM SCT250=

USA.gov is the U.S. government's official web portal to all federal, state and local government web resources and services.